Time,TemperatureF,DewpointF,PressureIn,WindDirection,WindDirectionDegrees,WindSpeedMPH,WindSpeedGustMPH,Humidity,HourlyPrecipIn,Conditions,Clouds,dailyrainin,SolarRadiationWatts/m^2,SoftwareType,DateUTC
2013-03-26 00:03:00,26.2,24.0,29.77,SSE,158,5.9,6.0,91,0.00,CLR,,0.33,0.0,WeatherDisplay:10.37,2013-03-25 23:03:00,
2013-03-26 00:08:00,26.2,24.0,29.77,SSE,158,5.9,6.0,91,0.00,CLR,,0.33,0.0,WeatherDisplay:10.37,2013-03-25 23:08:00,
2013-03-26 00:13:00,26.2,24.0,29.77,SSE,158,5.9,6.0,91,0.00,CLR,,0.33,0.0,WeatherDisplay:10.37,2013-03-25 23:13:00,
2013-03-26 00:18:00,26.1,23.8,29.77,SSE,158,5.9,6.0,91,0.00,CLR,,0.33,0.0,WeatherDisplay:10.37,2013-03-25 23:18:00,
2013-03-26 00:23:00,26.1,23.8,29.74,SSE,158,5.9,6.0,91,0.00,CLR,,0.33,0.0,WeatherDisplay:10.37,2013-03-25 23:23:00,
2013-03-26 00:28:00,26.1,23.8,29.74,SSE,158,5.9,6.0,91,0.00,CLR,,0.33,0.0,WeatherDisplay:10.37,2013-03-25 23:28:00,
2013-03-26 00:33:00,26.1,23.8,29.74,SSE,158,5.9,6.0,91,0.00,CLR,,0.33,0.0,WeatherDisplay:10.37,2013-03-25 23:33:00,
2013-03-26 00:38:00,26.2,24.0,29.74,SSE,158,5.9,6.0,91,0.00,CLR,,0.33,0.0,WeatherDisplay:10.37,2013-03-25 23:38:00,
2013-03-26 00:43:00,26.1,23.8,29.74,SSE,158,5.9,6.0,91,0.00,CLR,,0.33,0.0,WeatherDisplay:10.37,2013-03-25 23:43:00,
2013-03-26 00:48:00,26.1,23.8,29.74,SSE,158,5.9,6.0,91,0.00,CLR,,0.33,0.0,WeatherDisplay:10.37,2013-03-25 23:48:00,
2013-03-26 00:53:00,26.1,23.8,29.74,SSE,158,5.9,6.0,91,0.00,CLR,,0.33,0.0,WeatherDisplay:10.37,2013-03-25 23:53:00,
2013-03-26 00:58:00,26.1,23.8,29.74,SSE,158,5.9,6.0,91,0.00,CLR,,0.33,0.0,WeatherDisplay:10.37,2013-03-25 23:58:00,
2013-03-26 01:03:00,26.1,23.8,29.74,SSE,158,5.9,6.0,91,0.00,CLR,,0.33,0.0,WeatherDisplay:10.37,2013-03-26 00:03:00,
2013-03-26 01:08:00,26.1,23.8,29.74,SSE,158,5.9,6.0,91,0.00,CLR,,0.33,0.0,WeatherDisplay:10.37,2013-03-26 00:08:00,
2013-03-26 01:13:00,26.1,23.8,29.74,SSE,158,5.9,6.0,91,0.00,CLR,,0.33,0.0,WeatherDisplay:10.37,2013-03-26 00:13:00,
2013-03-26 01:18:00,26.1,23.8,29.74,SSE,158,5.9,6.0,91,0.00,CLR,,0.33,0.0,WeatherDisplay:10.37,2013-03-26 00:18:00,
2013-03-26 01:23:00,26.1,23.8,29.74,SSE,158,5.9,6.0,91,0.00,CLR,,0.33,0.0,WeatherDisplay:10.37,2013-03-26 00:23:00,
2013-03-26 01:28:00,26.2,24.0,29.74,SSE,158,5.9,6.0,91,0.00,CLR,,0.33,0.0,WeatherDisplay:10.37,2013-03-26 00:28:00,
2013-03-26 01:33:00,26.2,24.0,29.74,SSE,158,5.9,6.0,91,0.00,CLR,,0.33,0.0,WeatherDisplay:10.37,2013-03-26 00:33:00,
2013-03-26 01:38:00,26.2,23.7,29.74,SSE,158,5.9,6.0,90,0.00,CLR,,0.33,0.0,WeatherDisplay:10.37,2013-03-26 00:38:00,
2013-03-26 01:43:00,26.2,23.7,29.74,SSE,158,5.9,6.0,90,0.00,CLR,,0.33,0.0,WeatherDisplay:10.37,2013-03-26 00:43:00,
2013-03-26 01:48:00,26.2,24.0,29.74,SSE,158,5.9,6.0,91,0.00,CLR,,0.33,0.0,WeatherDisplay:10.37,2013-03-26 00:48:00,
2013-03-26 01:53:00,26.1,23.8,29.71,SSE,158,5.9,6.0,91,0.00,CLR,,0.33,0.0,WeatherDisplay:10.37,2013-03-26 00:53:00,
2013-03-26 01:58:00,26.1,23.8,29.71,SSE,158,5.9,6.0,91,0.00,CLR,,0.33,0.0,WeatherDisplay:10.37,2013-03-26 00:58:00,
2013-03-26 02:03:00,26.1,23.8,29.71,SSE,158,5.9,6.0,91,0.00,CLR,,0.33,0.0,WeatherDisplay:10.37,2013-03-26 01:03:00,
2013-03-26 02:08:00,26.1,23.5,29.71,SSE,158,5.9,6.0,90,0.00,CLR,,0.33,0.0,WeatherDisplay:10.37,2013-03-26 01:08:00,
2013-03-26 02:13:00,26.1,23.5,29.71,SSE,158,5.9,6.0,90,0.00,CLR,,0.33,0.0,WeatherDisplay:10.37,2013-03-26 01:13:00,
2013-03-26 02:18:00,26.1,23.5,29.71,SSE,158,5.9,6.0,90,0.00,CLR,,0.33,0.0,WeatherDisplay:10.37,2013-03-26 01:18:00,
2013-03-26 02:23:00,26.1,23.5,29.71,SSE,158,5.9,6.0,90,0.00,CLR,,0.33,0.0,WeatherDisplay:10.37,2013-03-26 01:23:00,
2013-03-26 02:28:00,26.1,23.8,29.71,SSE,158,5.9,6.0,91,0.00,CLR,,0.33,0.0,WeatherDisplay:10.37,2013-03-26 01:28:00,
2013-03-26 02:33:00,26.1,23.8,29.71,SSE,158,5.9,6.0,91,0.00,CLR,,0.33,0.0,WeatherDisplay:10.37,2013-03-26 01:33:00,
2013-03-26 02:38:00,26.1,23.8,29.71,SSE,158,5.9,6.0,91,0.00,CLR,,0.33,0.0,WeatherDisplay:10.37,2013-03-26 01:38:00,
2013-03-26 02:43:00,26.1,23.8,29.71,SSE,158,5.9,6.0,91,0.00,CLR,,0.33,0.0,WeatherDisplay:10.37,2013-03-26 01:43:00,
2013-03-26 02:48:00,26.1,23.5,29.71,SSE,158,5.9,6.0,90,0.00,CLR,,0.33,0.0,WeatherDisplay:10.37,2013-03-26 01:48:00,
2013-03-26 02:53:00,26.2,23.7,29.71,SSE,158,5.9,6.0,90,0.00,CLR,,0.33,0.0,WeatherDisplay:10.37,2013-03-26 01:53:00,
2013-03-26 02:58:00,26.1,23.5,29.71,SSE,158,5.9,6.0,90,0.00,CLR,,0.33,0.0,WeatherDisplay:10.37,2013-03-26 01:58:00,
2013-03-26 03:03:00,26.2,24.0,29.71,SSE,158,5.9,6.0,91,0.00,CLR,,0.33,0.0,WeatherDisplay:10.37,2013-03-26 02:03:00,
2013-03-26 03:08:00,26.2,24.0,29.71,SSE,158,5.9,6.0,91,0.00,CLR,,0.33,0.0,WeatherDisplay:10.37,2013-03-26 02:08:00,
2013-03-26 03:13:00,26.2,24.0,29.71,SSE,158,5.9,6.0,91,0.00,CLR,,0.33,0.0,WeatherDisplay:10.37,2013-03-26 02:13:00,
2013-03-26 03:18:00,26.2,24.0,29.71,SSE,158,5.9,6.0,91,0.00,CLR,,0.33,0.0,WeatherDisplay:10.37,2013-03-26 02:18:00,
2013-03-26 03:23:00,26.2,24.0,29.71,SSE,158,5.9,6.0,91,0.00,CLR,,0.33,0.0,WeatherDisplay:10.37,2013-03-26 02:23:00,
2013-03-26 03:28:00,26.2,24.0,29.71,SSE,158,5.9,6.0,91,0.00,CLR,,0.33,0.0,WeatherDisplay:10.37,2013-03-26 02:28:00,
2013-03-26 03:33:00,26.2,24.0,29.71,NW,315,3.5,3.5,91,0.00,CLR,,0.33,0.0,WeatherDisplay:10.37,2013-03-26 02:33:00,
2013-03-26 03:38:00,26.2,24.0,29.71,NW,315,3.5,3.5,91,0.00,CLR,,0.33,0.0,WeatherDisplay:10.37,2013-03-26 02:38:00,
2013-03-26 03:43:00,26.2,24.0,29.71,NW,315,3.5,3.5,91,0.00,CLR,,0.33,0.0,WeatherDisplay:10.37,2013-03-26 02:43:00,
2013-03-26 03:48:00,26.2,24.0,29.71,WNW,292,2.4,3.3,91,0.00,CLR,,0.33,0.0,WeatherDisplay:10.37,2013-03-26 02:48:00,
2013-03-26 03:53:00,26.2,23.7,29.71,WNW,292,2.4,3.3,90,0.00,CLR,,0.33,0.0,WeatherDisplay:10.37,2013-03-26 02:53:00,
2013-03-26 03:58:00,26.2,24.0,29.71,WNW,292,2.4,3.3,91,0.00,CLR,,0.33,0.0,WeatherDisplay:10.37,2013-03-26 02:58:00,
2013-03-26 04:03:00,26.2,24.0,29.71,WNW,292,3.6,3.6,91,0.00,CLR,,0.33,0.0,WeatherDisplay:10.37,2013-03-26 03:03:00,
2013-03-26 04:08:00,26.2,24.0,29.71,WNW,292,3.6,3.6,91,0.00,CLR,,0.33,0.0,WeatherDisplay:10.37,2013-03-26 03:08:00,
2013-03-26 04:13:00,26.2,23.7,29.71,WNW,292,3.6,3.6,90,0.00,CLR,,0.33,0.0,WeatherDisplay:10.37,2013-03-26 03:13:00,
2013-03-26 04:18:00,26.2,24.0,29.71,ESE,112,1.6,2.0,91,0.00,CLR,,0.33,0.0,WeatherDisplay:10.37,2013-03-26 03:18:00,
2013-03-26 04:23:00,26.2,24.0,29.71,NNE,22,3.5,3.5,91,0.00,CLR,,0.33,0.0,WeatherDisplay:10.37,2013-03-26 03:23:00,
2013-03-26 04:28:00,26.2,24.0,29.71,NNE,22,3.5,3.5,91,0.00,CLR,,0.33,0.0,WeatherDisplay:10.37,2013-03-26 03:28:00,
2013-03-26 04:33:00,26.2,24.0,29.71,NNW,338,3.8,3.8,91,0.00,CLR,,0.33,0.0,WeatherDisplay:10.37,2013-03-26 03:33:00,
2013-03-26 04:38:00,26.2,24.0,29.71,NNW,338,3.8,3.8,91,0.00,CLR,,0.33,0.0,WeatherDisplay:10.37,2013-03-26 03:38:00,
2013-03-26 04:43:00,26.2,24.0,29.71,NNW,338,3.8,3.8,91,0.00,CLR,,0.33,0.0,WeatherDisplay:10.37,2013-03-26 03:43:00,
2013-03-26 04:48:00,26.2,24.0,29.71,NNW,338,3.8,3.8,91,0.00,CLR,,0.33,0.0,WeatherDisplay:10.37,2013-03-26 03:48:00,
2013-03-26 04:53:00,26.2,23.7,29.71,NNW,338,3.8,3.8,90,0.00,CLR,,0.33,0.0,WeatherDisplay:10.37,2013-03-26 03:53:00,
2013-03-26 04:58:00,26.2,24.0,29.71,NNW,338,3.8,3.8,91,0.00,CLR,,0.33,0.0,WeatherDisplay:10.37,2013-03-26 03:58:00,
2013-03-26 05:00:00,26.2,24.0,29.71,NNW,338,3.8,3.8,91,0.00,CLR,,0.33,0.0,WeatherDisplay:10.37,2013-03-26 04:00:00,
2013-03-26 05:05:00,26.2,24.0,29.71,NNW,338,3.8,3.8,91,0.00,OVC,,0.33,0.0,WeatherDisplay:10.37,2013-03-26 04:05:00,
2013-03-26 05:10:00,26.2,24.0,29.71,NNE,22,3.8,3.8,91,0.00,OVC,,0.33,0.0,WeatherDisplay:10.37,2013-03-26 04:10:00,
2013-03-26 05:15:00,26.2,24.0,29.71,NNE,22,3.8,3.8,91,0.00,OVC,,0.33,0.0,WeatherDisplay:10.37,2013-03-26 04:15:00,
2013-03-26 05:20:00,26.2,23.7,29.71,NNE,22,3.8,3.8,90,0.00,OVC,,0.33,0.0,WeatherDisplay:10.37,2013-03-26 04:20:00,
2013-03-26 05:25:00,26.2,24.0,29.71,NNE,22,3.8,3.8,91,0.00,OVC,,0.33,0.0,WeatherDisplay:10.37,2013-03-26 04:25:00,
2013-03-26 05:30:00,26.2,24.0,29.71,NNE,22,3.8,3.8,91,0.00,OVC,,0.33,0.0,WeatherDisplay:10.37,2013-03-26 04:30:00,
2013-03-26 05:35:00,26.2,24.0,29.71,NNE,22,3.8,3.8,91,0.00,OVC,,0.33,0.0,WeatherDisplay:10.37,2013-03-26 04:35:00,
2013-03-26 05:40:00,26.2,24.0,29.71,NNE,22,3.5,3.5,91,0.00,OVC,,0.33,0.0,WeatherDisplay:10.37,2013-03-26 04:40:00,
2013-03-26 05:45:00,26.2,24.0,29.71,NNE,22,3.5,3.5,91,0.00,OVC,,0.33,0.0,WeatherDisplay:10.37,2013-03-26 04:45:00,
2013-03-26 05:50:00,26.2,24.0,29.71,NNE,22,3.5,3.5,91,0.00,OVC,,0.33,0.0,WeatherDisplay:10.37,2013-03-26 04:50:00,
2013-03-26 05:55:00,26.2,24.0,29.71,NNE,22,3.5,3.5,91,0.00,OVC,,0.33,1.2,WeatherDisplay:10.37,2013-03-26 04:55:00,
2013-03-26 06:00:00,26.2,24.0,29.71,NNE,22,3.5,3.5,91,0.00,OVC,,0.33,3.8,WeatherDisplay:10.37,2013-03-26 05:00:00,
2013-03-26 06:05:00,26.2,24.0,29.71,NNE,22,3.5,3.5,91,0.00,OVC,,0.33,6.4,WeatherDisplay:10.37,2013-03-26 05:05:00,
2013-03-26 06:10:00,26.2,24.0,29.68,NNE,22,3.5,3.5,91,0.00,OVC,,0.33,9.1,WeatherDisplay:10.37,2013-03-26 05:10:00,
2013-03-26 06:15:00,26.2,24.2,29.68,NNE,22,3.5,3.5,92,0.00,OVC,,0.33,11.7,WeatherDisplay:10.37,2013-03-26 05:15:00,
2013-03-26 06:20:00,26.2,24.2,29.68,NNE,22,3.5,3.5,92,0.00,OVC,,0.33,14.4,WeatherDisplay:10.37,2013-03-26 05:20:00,
2013-03-26 06:25:00,26.4,24.4,29.71,NNE,22,3.5,3.5,92,0.00,OVC,,0.33,17.0,WeatherDisplay:10.37,2013-03-26 05:25:00,
2013-03-26 06:30:00,26.4,24.4,29.71,NNE,22,3.5,3.5,92,0.00,OVC,,0.33,19.8,WeatherDisplay:10.37,2013-03-26 05:30:00,
2013-03-26 06:35:00,26.4,24.1,29.71,NNE,22,3.5,3.5,91,0.00,OVC,,0.33,22.4,WeatherDisplay:10.37,2013-03-26 05:35:00,
2013-03-26 06:40:00,26.4,24.1,29.71,NNE,22,3.5,3.5,91,0.00,OVC,,0.33,25.1,WeatherDisplay:10.37,2013-03-26 05:40:00,
2013-03-26 06:45:00,26.6,24.3,29.71,NNE,22,3.5,3.5,91,0.00,OVC,,0.33,27.9,WeatherDisplay:10.37,2013-03-26 05:45:00,
2013-03-26 06:50:00,26.6,24.3,29.71,NNE,22,3.5,3.5,91,0.10,RA,,0.43,30.5,WeatherDisplay:10.37,2013-03-26 05:50:00,
2013-03-26 06:55:00,26.6,24.3,29.71,NNE,22,3.5,3.5,91,0.10,RA,,0.43,33.3,WeatherDisplay:10.37,2013-03-26 05:55:00,
2013-03-26 07:00:00,26.8,24.2,29.71,NNE,22,3.5,3.5,90,0.10,RA,,0.00,36.1,WeatherDisplay:10.37,2013-03-26 06:00:00,
2013-03-26 07:05:00,26.8,24.2,29.71,NNE,22,3.5,3.5,90,0.10,RA,,0.00,38.8,WeatherDisplay:10.37,2013-03-26 06:05:00,
2013-03-26 07:10:00,26.8,24.2,29.71,NNE,22,3.5,3.5,90,0.10,OVC,,0.00,41.6,WeatherDisplay:10.37,2013-03-26 06:10:00,
2013-03-26 07:15:00,27.0,24.4,29.71,NNE,22,3.5,3.5,90,0.10,OVC,,0.00,44.4,WeatherDisplay:10.37,2013-03-26 06:15:00,
2013-03-26 07:20:00,27.0,24.4,29.71,NNE,22,3.5,3.5,90,0.10,OVC,,0.00,47.0,WeatherDisplay:10.37,2013-03-26 06:20:00,
2013-03-26 07:25:00,27.0,24.2,29.71,NNE,22,3.5,3.5,89,0.10,OVC,,0.00,49.8,WeatherDisplay:10.37,2013-03-26 06:25:00,
2013-03-26 07:30:00,27.0,24.2,29.71,NNE,22,3.5,3.5,89,0.10,OVC,,0.00,52.5,WeatherDisplay:10.37,2013-03-26 06:30:00,
2013-03-26 07:35:00,27.1,24.3,29.71,NNE,22,3.5,3.5,89,0.10,OVC,,0.00,55.3,WeatherDisplay:10.37,2013-03-26 06:35:00,
2013-03-26 07:40:00,27.1,24.3,29.71,NNE,22,3.5,3.5,89,0.10,OVC,,0.00,57.9,WeatherDisplay:10.37,2013-03-26 06:40:00,
2013-03-26 07:45:00,27.3,24.5,29.71,NNE,22,3.5,3.5,89,0.10,OVC,,0.00,60.6,WeatherDisplay:10.37,2013-03-26 06:45:00,
2013-03-26 07:50:00,27.3,24.5,29.71,NNE,22,3.5,3.5,89,0.00,OVC,,0.00,63.4,WeatherDisplay:10.37,2013-03-26 06:50:00,
2013-03-26 07:55:00,27.5,24.7,29.71,NNE,22,3.5,3.5,89,0.00,OVC,,0.00,66.0,WeatherDisplay:10.37,2013-03-26 06:55:00,
2013-03-26 08:00:00,27.7,24.9,29.71,NNE,22,3.5,3.5,89,0.00,OVC,,0.00,68.6,WeatherDisplay:10.37,2013-03-26 07:00:00,
2013-03-26 08:05:00,27.7,24.9,29.71,NNE,22,3.5,3.5,89,0.00,OVC,,0.00,71.3,WeatherDisplay:10.37,2013-03-26 07:05:00,
2013-03-26 08:10:00,27.7,24.9,29.71,NNE,22,3.5,3.5,89,0.00,OVC,,0.00,73.9,WeatherDisplay:10.37,2013-03-26 07:10:00,
2013-03-26 08:15:00,27.9,25.0,29.71,NNE,22,3.5,3.5,89,0.00,OVC,,0.00,76.6,WeatherDisplay:10.37,2013-03-26 07:15:00,
2013-03-26 08:20:00,28.0,25.2,29.71,NNE,22,3.5,3.5,89,0.00,OVC,,0.00,79.0,WeatherDisplay:10.37,2013-03-26 07:20:00,
2013-03-26 08:25:00,28.0,25.2,29.71,NNE,22,3.5,3.5,89,0.00,OVC,,0.00,81.7,WeatherDisplay:10.37,2013-03-26 07:25:00,
2013-03-26 08:30:00,28.2,25.4,29.71,NNE,22,3.5,3.5,89,0.00,OVC,,0.00,84.2,WeatherDisplay:10.37,2013-03-26 07:30:00,
2013-03-26 08:35:00,28.4,25.6,29.71,NNE,22,3.5,3.5,89,0.00,OVC,,0.00,86.6,WeatherDisplay:10.37,2013-03-26 07:35:00,
2013-03-26 08:40:00,28.6,25.5,29.71,NNE,22,3.5,3.5,88,0.00,OVC,,0.00,89.1,WeatherDisplay:10.37,2013-03-26 07:40:00,
2013-03-26 08:45:00,28.6,25.5,29.71,NNE,22,3.5,3.5,88,0.00,OVC,,0.00,91.6,WeatherDisplay:10.37,2013-03-26 07:45:00,
2013-03-26 08:50:00,28.6,25.5,29.71,NNE,22,3.5,3.5,88,0.00,OVC,,0.00,93.9,WeatherDisplay:10.37,2013-03-26 07:50:00,
2013-03-26 08:55:00,28.6,25.5,29.71,NNE,22,3.5,3.5,88,0.00,OVC,,0.00,96.4,WeatherDisplay:10.37,2013-03-26 07:55:00,
2013-03-26 09:00:00,28.8,25.7,29.71,NNE,22,3.5,3.5,88,0.00,OVC,,0.00,98.7,WeatherDisplay:10.37,2013-03-26 08:00:00,
2013-03-26 09:05:00,29.1,26.0,29.71,NNE,22,3.5,3.5,88,0.00,OVC,,0.00,101.0,WeatherDisplay:10.37,2013-03-26 08:05:00,
2013-03-26 09:10:00,29.3,25.9,29.71,NNE,22,3.5,3.5,87,0.00,OVC,,0.00,103.1,WeatherDisplay:10.37,2013-03-26 08:10:00,
2013-03-26 09:15:00,29.3,25.9,29.71,NNE,22,3.5,3.5,87,0.00,OVC,,0.00,105.4,WeatherDisplay:10.37,2013-03-26 08:15:00,
2013-03-26 09:20:00,29.3,25.6,29.71,NNE,22,3.5,3.5,86,0.00,OVC,,0.00,107.6,WeatherDisplay:10.37,2013-03-26 08:20:00,
2013-03-26 09:25:00,29.5,25.8,29.71,NNE,22,3.5,3.5,86,0.00,OVC,,0.00,109.7,WeatherDisplay:10.37,2013-03-26 08:25:00,
2013-03-26 09:30:00,29.7,26.0,29.71,NNE,22,3.5,3.5,86,0.00,OVC,,0.00,111.7,WeatherDisplay:10.37,2013-03-26 08:30:00,
2013-03-26 09:35:00,29.7,25.7,29.71,NNE,22,3.5,3.5,85,0.00,OVC,,0.00,113.7,WeatherDisplay:10.37,2013-03-26 08:35:00,
2013-03-26 09:40:00,29.8,25.9,29.71,NNE,22,3.5,3.5,85,0.00,OVC,,0.00,115.7,WeatherDisplay:10.37,2013-03-26 08:40:00,
2013-03-26 09:45:00,30.0,26.1,29.71,NNE,22,3.5,3.5,85,0.00,OVC,,0.00,117.6,WeatherDisplay:10.37,2013-03-26 08:45:00,
2013-03-26 09:50:00,30.2,26.2,29.71,NNE,22,3.5,3.5,85,0.00,OVC,,0.00,119.5,WeatherDisplay:10.37,2013-03-26 08:50:00,
2013-03-26 09:55:00,30.2,25.9,29.71,NNE,22,3.5,3.5,84,0.00,OVC,,0.00,121.3,WeatherDisplay:10.37,2013-03-26 08:55:00,
2013-03-26 10:00:00,30.4,25.8,29.71,NNE,22,3.5,3.5,83,0.00,OVC,,0.00,123.1,WeatherDisplay:10.37,2013-03-26 09:00:00,
2013-03-26 10:05:00,30.6,26.0,29.71,NNE,22,3.5,3.5,83,0.00,OVC,,0.00,124.7,WeatherDisplay:10.37,2013-03-26 09:05:00,
2013-03-26 10:10:00,30.7,26.2,29.71,NNE,22,3.5,3.5,83,0.00,OVC,,0.00,126.4,WeatherDisplay:10.37,2013-03-26 09:10:00,
2013-03-26 10:15:00,30.9,26.4,29.71,NNE,22,3.5,3.5,83,0.00,OVC,,0.00,128.0,WeatherDisplay:10.37,2013-03-26 09:15:00,
2013-03-26 10:20:00,31.3,26.4,29.71,NNE,22,3.5,3.5,82,0.00,OVC,,0.00,129.5,WeatherDisplay:10.37,2013-03-26 09:20:00,
2013-03-26 10:25:00,31.5,26.3,29.68,NNE,22,3.5,3.5,81,0.00,OVC,,0.00,131.0,WeatherDisplay:10.37,2013-03-26 09:25:00,
2013-03-26 10:30:00,31.6,26.5,29.68,NNE,22,3.5,3.5,81,0.00,OVC,,0.00,132.3,WeatherDisplay:10.37,2013-03-26 09:30:00,
2013-03-26 10:35:00,31.5,26.0,29.68,NNE,22,3.5,3.5,80,0.00,OVC,,0.00,133.7,WeatherDisplay:10.37,2013-03-26 09:35:00,
2013-03-26 10:40:00,31.6,25.9,29.68,NNE,22,3.5,3.5,79,0.00,OVC,,0.00,135.0,WeatherDisplay:10.37,2013-03-26 09:40:00,
2013-03-26 10:45:00,31.8,26.0,29.68,NNE,22,3.5,3.5,79,0.00,OVC,,0.00,136.1,WeatherDisplay:10.37,2013-03-26 09:45:00,
2013-03-26 10:50:00,31.8,26.0,29.68,NNE,22,3.5,3.5,79,0.00,OVC,,0.00,137.3,WeatherDisplay:10.37,2013-03-26 09:50:00,
2013-03-26 10:55:00,32.0,26.5,29.71,NNE,22,3.5,3.5,80,0.00,OVC,,0.00,138.4,WeatherDisplay:10.37,2013-03-26 09:55:00,
2013-03-26 11:00:00,32.2,26.7,29.71,NNE,22,3.5,3.5,80,0.00,OVC,,0.00,139.4,WeatherDisplay:10.37,2013-03-26 10:00:00,
2013-03-26 11:05:00,32.2,26.7,29.71,NNE,22,3.5,3.5,80,0.00,OVC,,0.00,140.4,WeatherDisplay:10.37,2013-03-26 10:05:00,
2013-03-26 11:10:00,32.4,26.6,29.71,NNE,22,3.5,3.5,79,0.00,OVC,,0.00,141.2,WeatherDisplay:10.37,2013-03-26 10:10:00,
2013-03-26 11:15:00,32.4,26.6,29.71,NNE,22,3.5,3.5,79,0.00,OVC,,0.00,142.1,WeatherDisplay:10.37,2013-03-26 10:15:00,
2013-03-26 11:20:00,32.2,26.4,29.71,NNE,22,3.5,3.5,79,0.00,OVC,,0.00,142.7,WeatherDisplay:10.37,2013-03-26 10:20:00,
2013-03-26 11:25:00,32.0,25.9,29.71,NNE,22,3.5,3.5,78,0.00,OVC,,0.00,143.4,WeatherDisplay:10.37,2013-03-26 10:25:00,
2013-03-26 11:30:00,32.0,26.2,29.71,NNE,22,3.5,3.5,79,0.00,OVC,,0.00,143.9,WeatherDisplay:10.37,2013-03-26 10:30:00,
2013-03-26 11:35:00,32.2,26.4,29.71,NNE,22,3.5,3.5,79,0.00,OVC,,0.00,144.4,WeatherDisplay:10.37,2013-03-26 10:35:00,
2013-03-26 11:40:00,32.2,26.4,29.71,NNE,22,3.5,3.5,79,0.00,OVC,,0.00,144.9,WeatherDisplay:10.37,2013-03-26 10:40:00,
2013-03-26 11:45:00,32.2,26.4,29.71,NNE,22,3.5,3.5,79,0.00,OVC,,0.00,145.2,WeatherDisplay:10.37,2013-03-26 10:45:00,
2013-03-26 11:50:00,32.2,26.4,29.71,NNE,22,3.5,3.5,79,0.00,OVC,,0.00,145.5,WeatherDisplay:10.37,2013-03-26 10:50:00,
2013-03-26 11:55:00,32.2,26.4,29.71,NNE,22,3.5,3.5,79,0.00,OVC,,0.00,145.7,WeatherDisplay:10.37,2013-03-26 10:55:00,
2013-03-26 12:00:00,32.4,26.6,29.71,NNE,22,3.5,3.5,79,0.00,OVC,,0.00,145.9,WeatherDisplay:10.37,2013-03-26 11:00:00,
2013-03-26 12:05:00,32.5,26.7,29.71,NNE,22,3.5,3.5,79,0.00,OVC,,0.00,145.9,WeatherDisplay:10.37,2013-03-26 11:05:00,
2013-03-26 12:10:00,32.2,26.4,29.71,NNE,22,3.5,3.5,79,0.00,OVC,,0.00,145.9,WeatherDisplay:10.37,2013-03-26 11:10:00,
2013-03-26 12:15:00,32.2,26.1,29.71,NNE,22,3.5,3.5,78,0.00,OVC,,0.00,145.7,WeatherDisplay:10.37,2013-03-26 11:15:00,
2013-03-26 12:20:00,32.2,26.1,29.71,NNE,22,3.5,3.5,78,0.00,RA,,0.00,145.5,WeatherDisplay:10.37,2013-03-26 11:20:00,
2013-03-26 12:25:00,32.4,26.3,29.71,NNE,22,3.5,3.5,78,0.00,RA,,0.00,145.4,WeatherDisplay:10.37,2013-03-26 11:25:00,
2013-03-26 12:30:00,32.4,26.3,29.71,WNW,292,4.6,4.6,78,0.00,OVC,,0.00,145.0,WeatherDisplay:10.37,2013-03-26 11:30:00,
2013-03-26 12:35:00,32.5,26.4,29.71,WNW,292,4.6,4.6,78,0.01,RA,,0.01,144.7,WeatherDisplay:10.37,2013-03-26 11:35:00,
2013-03-26 12:40:00,32.7,26.6,29.71,WNW,292,4.6,4.6,78,0.01,RA,,0.01,144.2,WeatherDisplay:10.37,2013-03-26 11:40:00,
2013-03-26 12:45:00,32.7,26.6,29.71,WNW,292,3.5,3.5,78,0.01,OVC,,0.01,143.7,WeatherDisplay:10.37,2013-03-26 11:45:00,
2013-03-26 12:50:00,32.5,26.1,29.71,West,270,3.6,3.6,77,0.01,RA,,0.01,143.1,WeatherDisplay:10.37,2013-03-26 11:50:00,
2013-03-26 12:55:00,32.5,26.1,29.71,NNE,22,5.8,5.8,77,0.01,RA,,0.01,142.4,WeatherDisplay:10.37,2013-03-26 11:55:00,
2013-03-26 13:00:00,32.5,26.4,29.71,NNW,338,4.0,4.0,78,0.02,RA,,0.02,141.6,WeatherDisplay:10.37,2013-03-26 12:00:00,
2013-03-26 13:05:00,32.5,26.4,29.71,NNE,22,6.9,6.9,78,0.02,RA,,0.02,140.7,WeatherDisplay:10.37,2013-03-26 12:05:00,
2013-03-26 13:10:00,32.5,26.4,29.71,NNW,338,4.6,4.6,78,0.02,OVC,,0.02,139.9,WeatherDisplay:10.37,2013-03-26 12:10:00,
2013-03-26 13:15:00,32.5,26.4,29.71,NNW,338,5.8,5.8,78,0.02,RA,,0.02,138.9,WeatherDisplay:10.37,2013-03-26 12:15:00,
2013-03-26 13:20:00,32.4,26.3,29.71,NNW,338,5.8,5.8,78,0.02,RA,,0.02,137.9,WeatherDisplay:10.37,2013-03-26 12:20:00,
2013-03-26 13:25:00,32.5,26.4,29.71,NNW,338,5.8,5.8,78,0.02,RA,,0.02,136.8,WeatherDisplay:10.37,2013-03-26 12:25:00,
2013-03-26 13:30:00,32.4,26.3,29.71,NNE,22,5.9,6.0,78,0.02,RA,,0.02,135.6,WeatherDisplay:10.37,2013-03-26 12:30:00,
2013-03-26 13:35:00,32.2,26.1,29.71,NNW,338,8.1,8.1,78,0.02,OVC,,0.02,134.3,WeatherDisplay:10.37,2013-03-26 12:35:00,
2013-03-26 13:40:00,32.2,26.4,29.71,NE,45,2.3,2.9,79,0.02,RA,,0.03,133.2,WeatherDisplay:10.37,2013-03-26 12:40:00,
2013-03-26 13:45:00,32.2,26.1,29.71,NE,45,4.6,4.6,78,0.02,RA,,0.03,131.7,WeatherDisplay:10.37,2013-03-26 12:45:00,
2013-03-26 13:50:00,32.2,26.4,29.71,NNE,22,5.8,5.8,79,0.02,RA,,0.03,130.3,WeatherDisplay:10.37,2013-03-26 12:50:00,
2013-03-26 13:55:00,32.2,26.4,29.71,NNE,22,6.9,6.9,79,0.02,RA,,0.03,128.9,WeatherDisplay:10.37,2013-03-26 12:55:00,
2013-03-26 14:00:00,32.2,26.4,29.71,ENE,68,2.4,3.1,79,0.02,OVC,,0.03,127.2,WeatherDisplay:10.37,2013-03-26 13:00:00,
2013-03-26 14:05:00,32.0,26.2,29.71,NNW,338,5.9,5.9,79,0.02,RA,,0.04,125.7,WeatherDisplay:10.37,2013-03-26 13:05:00,
2013-03-26 14:10:00,32.0,26.2,29.71,NNW,338,5.8,5.8,79,0.02,RA,,0.04,123.9,WeatherDisplay:10.37,2013-03-26 13:10:00,
2013-03-26 14:15:00,31.8,26.0,29.71,NNE,22,5.8,5.8,79,0.02,OVC,,0.04,122.3,WeatherDisplay:10.37,2013-03-26 13:15:00,
2013-03-26 14:20:00,31.8,26.4,29.71,North,0,4.0,4.0,80,0.02,RA,,0.04,120.5,WeatherDisplay:10.37,2013-03-26 13:20:00,
2013-03-26 14:25:00,31.8,26.4,29.71,NNW,338,5.8,5.8,80,0.02,RA,,0.04,118.6,WeatherDisplay:10.37,2013-03-26 13:25:00,
2013-03-26 14:30:00,32.0,26.5,29.71,NNE,22,3.5,3.5,80,0.02,OVC,,0.04,116.7,WeatherDisplay:10.37,2013-03-26 13:30:00,
2013-03-26 14:35:00,32.0,26.5,29.71,NNW,338,4.9,4.9,80,0.02,OVC,,0.04,114.8,WeatherDisplay:10.37,2013-03-26 13:35:00,
2013-03-26 14:40:00,31.6,26.5,29.71,NW,315,3.8,3.8,81,0.02,RA,,0.04,112.7,WeatherDisplay:10.37,2013-03-26 13:40:00,
2013-03-26 14:45:00,31.6,26.5,29.71,NNE,22,3.3,3.3,81,0.02,RA,,0.04,110.7,WeatherDisplay:10.37,2013-03-26 13:45:00,
2013-03-26 14:50:00,31.5,26.3,29.71,NNW,338,4.6,4.6,81,0.01,OVC,,0.04,108.6,WeatherDisplay:10.37,2013-03-26 13:50:00,
2013-03-26 14:55:00,31.5,26.3,29.71,NNW,338,3.8,3.8,81,0.01,OVC,,0.04,106.4,WeatherDisplay:10.37,2013-03-26 13:55:00,
2013-03-26 15:00:00,31.6,26.5,29.71,NNW,338,2.6,2.6,81,0.01,OVC,,0.05,104.3,WeatherDisplay:10.37,2013-03-26 14:00:00,
2013-03-26 15:05:00,31.5,26.6,29.71,NNE,22,3.5,3.5,82,0.01,RA,,0.05,102.1,WeatherDisplay:10.37,2013-03-26 14:05:00,
2013-03-26 15:10:00,31.6,26.8,29.71,NNW,338,2.4,2.4,82,0.01,RA,,0.05,99.8,WeatherDisplay:10.37,2013-03-26 14:10:00,
2013-03-26 15:15:00,31.6,26.8,29.71,NNW,338,1.6,2.6,82,0.01,OVC,,0.05,97.5,WeatherDisplay:10.37,2013-03-26 14:15:00,
2013-03-26 15:20:00,31.5,26.6,29.71,NNE,22,4.0,4.0,82,0.01,OVC,,0.05,95.2,WeatherDisplay:10.37,2013-03-26 14:20:00,
2013-03-26 15:25:00,31.5,26.9,29.71,NE,45,2.6,3.1,83,0.01,OVC,,0.05,92.9,WeatherDisplay:10.37,2013-03-26 14:25:00,
2013-03-26 15:30:00,31.5,26.6,29.71,NNW,338,2.6,2.6,82,0.01,RA,,0.05,90.4,WeatherDisplay:10.37,2013-03-26 14:30:00,
2013-03-26 15:35:00,31.3,26.7,29.71,North,0,3.5,3.5,83,0.01,RA,,0.05,87.9,WeatherDisplay:10.37,2013-03-26 14:35:00,
2013-03-26 15:40:00,31.3,26.7,29.71,NNW,338,4.3,4.3,83,0.01,OVC,,0.05,85.5,WeatherDisplay:10.37,2013-03-26 14:40:00,
2013-03-26 15:45:00,31.3,26.7,29.71,NNE,22,3.5,3.5,83,0.01,OVC,,0.05,83.0,WeatherDisplay:10.37,2013-03-26 14:45:00,
2013-03-26 15:50:00,31.1,26.5,29.71,NNE,22,5.8,5.8,83,0.01,OVC,,0.05,80.4,WeatherDisplay:10.37,2013-03-26 14:50:00,
2013-03-26 15:55:00,31.1,26.2,29.71,WNW,292,3.5,3.5,82,0.01,OVC,,0.05,77.9,WeatherDisplay:10.37,2013-03-26 14:55:00,
2013-03-26 16:00:00,31.1,26.5,29.71,North,0,2.4,2.4,83,0.01,RA,,0.06,75.2,WeatherDisplay:10.37,2013-03-26 15:00:00,
2013-03-26 16:05:00,31.1,26.5,29.71,NNW,338,2.9,4.0,83,0.01,RA,,0.06,72.8,WeatherDisplay:10.37,2013-03-26 15:05:00,
2013-03-26 16:10:00,31.1,26.5,29.71,North,0,2.3,2.3,83,0.01,OVC,,0.06,70.1,WeatherDisplay:10.37,2013-03-26 15:10:00,
2013-03-26 16:15:00,31.1,26.8,29.71,North,0,2.3,2.3,84,0.01,OVC,,0.06,67.5,WeatherDisplay:10.37,2013-03-26 15:15:00,
2013-03-26 16:20:00,31.1,26.8,29.71,NNW,338,6.4,6.4,84,0.01,OVC,,0.06,64.8,WeatherDisplay:10.37,2013-03-26 15:20:00,
2013-03-26 16:25:00,30.9,26.7,29.71,NNW,338,6.9,6.9,84,0.01,OVC,,0.06,62.0,WeatherDisplay:10.37,2013-03-26 15:25:00,
2013-03-26 16:30:00,30.9,26.7,29.71,NW,315,4.6,4.6,84,0.00,OVC,,0.06,59.4,WeatherDisplay:10.37,2013-03-26 15:30:00,
2013-03-26 16:35:00,30.9,26.7,29.71,WNW,292,3.5,3.5,84,0.00,OVC,,0.06,56.8,WeatherDisplay:10.37,2013-03-26 15:35:00,
2013-03-26 16:40:00,30.9,26.7,29.74,NNW,338,3.8,3.8,84,0.00,OVC,,0.06,54.0,WeatherDisplay:10.37,2013-03-26 15:40:00,
2013-03-26 16:45:00,30.7,26.8,29.74,NNE,22,3.5,3.5,85,0.00,OVC,,0.06,51.3,WeatherDisplay:10.37,2013-03-26 15:45:00,
2013-03-26 16:50:00,30.7,26.8,29.74,NNE,22,3.5,3.5,85,0.00,OVC,,0.06,48.5,WeatherDisplay:10.37,2013-03-26 15:50:00,
2013-03-26 16:55:00,30.7,27.0,29.74,NNW,338,3.5,3.6,86,0.00,OVC,,0.06,45.9,WeatherDisplay:10.37,2013-03-26 15:55:00,
2013-03-26 17:00:00,30.7,27.0,29.74,NNW,338,3.5,4.0,86,0.00,OVC,,0.06,43.1,WeatherDisplay:10.37,2013-03-26 16:00:00,
2013-03-26 17:05:00,30.7,27.3,29.74,NNW,338,3.5,3.5,87,0.00,OVC,,0.06,40.4,WeatherDisplay:10.37,2013-03-26 16:05:00,
2013-03-26 17:10:00,30.7,27.3,29.74,NNW,338,4.0,4.0,87,0.00,OVC,,0.06,37.6,WeatherDisplay:10.37,2013-03-26 16:10:00,
2013-03-26 17:15:00,30.7,27.3,29.74,NNW,338,2.3,2.3,87,0.00,OVC,,0.06,34.8,WeatherDisplay:10.37,2013-03-26 16:15:00,
2013-03-26 17:20:00,30.6,27.2,29.74,NNE,22,6.9,6.9,87,0.00,RA,,0.06,32.2,WeatherDisplay:10.37,2013-03-26 16:20:00,
2013-03-26 17:25:00,30.4,27.3,29.74,NNW,338,3.5,3.5,88,0.00,RA,,0.06,29.4,WeatherDisplay:10.37,2013-03-26 16:25:00,
2013-03-26 17:30:00,30.4,27.0,29.74,NNW,338,3.5,3.5,87,0.00,OVC,,0.06,26.7,WeatherDisplay:10.37,2013-03-26 16:30:00,
2013-03-26 17:35:00,30.2,27.1,29.74,NNE,22,3.6,4.0,88,0.00,OVC,,0.06,23.9,WeatherDisplay:10.37,2013-03-26 16:35:00,
2013-03-26 17:40:00,30.2,27.3,29.77,North,0,2.4,3.8,89,0.00,OVC,,0.06,21.3,WeatherDisplay:10.37,2013-03-26 16:40:00,
2013-03-26 17:45:00,30.2,27.1,29.77,WNW,292,2.9,2.9,88,0.00,OVC,,0.06,18.6,WeatherDisplay:10.37,2013-03-26 16:45:00,
2013-03-26 17:50:00,30.2,27.3,29.77,NNW,338,2.9,5.6,89,0.00,OVC,,0.06,15.8,WeatherDisplay:10.37,2013-03-26 16:50:00,
2013-03-26 17:55:00,30.0,27.2,29.77,NNW,338,5.8,5.8,89,0.00,OVC,,0.06,13.2,WeatherDisplay:10.37,2013-03-26 16:55:00,
2013-03-26 18:00:00,30.0,27.2,29.77,NNE,22,3.5,3.5,89,0.00,OVC,,0.06,10.6,WeatherDisplay:10.37,2013-03-26 17:00:00,
2013-03-26 18:05:00,29.8,27.0,29.77,NNE,22,3.5,3.5,89,0.00,OVC,,0.06,7.9,WeatherDisplay:10.37,2013-03-26 17:05:00,
2013-03-26 18:10:00,29.8,27.0,29.74,NNW,338,3.5,3.5,89,0.00,OVC,,0.10,5.3,WeatherDisplay:10.37,2013-03-26 17:10:00,
2013-03-26 18:15:00,29.8,27.0,29.74,NNW,338,3.5,3.5,89,0.04,RA,,0.04,2.8,WeatherDisplay:10.37,2013-03-26 17:15:00,
2013-03-26 18:20:00,29.7,26.8,29.74,North,0,4.6,4.6,89,0.04,RA,,0.04,0.7,WeatherDisplay:10.37,2013-03-26 17:20:00,
2013-03-26 18:25:00,29.7,26.8,29.74,NNW,338,3.6,4.3,89,0.04,OVC,,0.04,0.7,WeatherDisplay:10.37,2013-03-26 17:25:00,
2013-03-26 18:30:00,29.5,26.9,29.74,NNW,338,6.9,6.9,90,0.04,OVC,,0.04,0.7,WeatherDisplay:10.37,2013-03-26 17:30:00,
2013-03-26 18:35:00,29.5,26.9,29.74,NNE,22,3.6,3.6,90,0.04,CLR,,0.04,0.0,WeatherDisplay:10.37,2013-03-26 17:35:00,
2013-03-26 18:40:00,29.5,26.9,29.71,NNW,338,4.9,5.9,90,0.04,CLR,,0.04,0.0,WeatherDisplay:10.37,2013-03-26 17:40:00,
2013-03-26 18:45:00,29.5,26.9,29.71,NNW,338,4.9,5.9,90,0.04,CLR,,0.04,0.0,WeatherDisplay:10.37,2013-03-26 17:45:00,
2013-03-26 18:50:00,29.5,26.9,29.71,NNE,22,6.2,6.2,90,0.04,CLR,,0.04,0.0,WeatherDisplay:10.37,2013-03-26 17:50:00,
2013-03-26 18:55:00,29.5,26.9,29.71,SE,135,3.8,4.0,90,0.04,CLR,,0.04,0.0,WeatherDisplay:10.37,2013-03-26 17:55:00,
2013-03-26 19:00:00,29.5,26.9,29.71,NNE,22,2.4,2.4,90,0.04,CLR,,0.04,0.0,WeatherDisplay:10.37,2013-03-26 18:00:00,
2013-03-26 19:05:00,29.3,27.0,29.71,NNE,22,2.4,2.4,91,0.04,CLR,,0.04,0.0,WeatherDisplay:10.37,2013-03-26 18:05:00,
2013-03-26 19:10:00,29.3,27.0,29.74,NNE,22,2.4,2.4,91,0.04,CLR,,0.04,0.0,WeatherDisplay:10.37,2013-03-26 18:10:00,
2013-03-26 19:15:00,29.3,27.0,29.74,NNW,338,3.5,3.5,91,0.00,CLR,,0.04,0.0,WeatherDisplay:10.37,2013-03-26 18:15:00,
2013-03-26 19:20:00,29.1,26.8,29.74,NNE,22,4.9,4.9,91,0.00,CLR,,0.04,0.0,WeatherDisplay:10.37,2013-03-26 18:20:00,
2013-03-26 19:25:00,29.1,26.8,29.74,NNE,22,5.8,5.8,91,0.00,CLR,,0.04,0.0,WeatherDisplay:10.37,2013-03-26 18:25:00,
2013-03-26 19:30:00,29.1,26.8,29.74,NNW,338,2.6,4.0,91,0.00,CLR,,0.04,0.0,WeatherDisplay:10.37,2013-03-26 18:30:00,
2013-03-26 19:35:00,28.9,26.6,29.74,North,0,1.6,3.1,91,0.00,CLR,,0.04,0.0,WeatherDisplay:10.37,2013-03-26 18:35:00,
2013-03-26 19:40:00,28.9,26.6,29.74,North,0,1.6,3.1,91,0.00,CLR,,0.04,0.0,WeatherDisplay:10.37,2013-03-26 18:40:00,
2013-03-26 19:45:00,28.9,26.4,29.74,North,0,1.6,3.1,90,0.00,CLR,,0.04,0.0,WeatherDisplay:10.37,2013-03-26 18:45:00,
2013-03-26 19:50:00,28.9,26.4,29.74,NW,315,3.5,3.5,90,0.00,CLR,,0.04,0.0,WeatherDisplay:10.37,2013-03-26 18:50:00,
2013-03-26 19:55:00,28.8,26.2,29.74,NW,315,3.5,3.5,90,0.00,CLR,,0.04,0.0,WeatherDisplay:10.37,2013-03-26 18:55:00,
2013-03-26 20:00:00,28.8,26.2,29.74,NW,315,3.5,3.5,90,0.00,CLR,,0.04,0.0,WeatherDisplay:10.37,2013-03-26 19:00:00,
2013-03-26 20:05:00,28.8,26.2,29.74,NW,315,3.5,3.5,90,0.00,CLR,,0.04,0.0,WeatherDisplay:10.37,2013-03-26 19:05:00,
2013-03-26 20:10:00,28.8,26.2,29.74,NW,315,3.5,3.5,90,0.00,CLR,,0.04,0.0,WeatherDisplay:10.37,2013-03-26 19:10:00,
2013-03-26 20:15:00,28.6,26.0,29.74,NW,315,3.5,3.5,90,0.00,CLR,,0.04,0.0,WeatherDisplay:10.37,2013-03-26 19:15:00,
2013-03-26 20:20:00,28.6,26.0,29.74,NW,315,3.5,3.5,90,0.00,CLR,,0.04,0.0,WeatherDisplay:10.37,2013-03-26 19:20:00,
2013-03-26 20:25:00,28.6,26.0,29.77,NW,315,3.5,3.5,90,0.00,CLR,,0.04,0.0,WeatherDisplay:10.37,2013-03-26 19:25:00,
2013-03-26 20:30:00,28.6,26.0,29.77,NW,315,3.5,3.5,90,0.00,CLR,,0.04,0.0,WeatherDisplay:10.37,2013-03-26 19:30:00,
2013-03-26 20:35:00,28.6,26.0,29.77,NW,315,3.5,3.5,90,0.00,CLR,,0.04,0.0,WeatherDisplay:10.37,2013-03-26 19:35:00,
2013-03-26 20:40:00,28.6,26.0,29.77,NW,315,3.5,3.5,90,0.00,CLR,,0.04,0.0,WeatherDisplay:10.37,2013-03-26 19:40:00,
2013-03-26 20:45:00,28.6,26.3,29.77,NW,315,3.5,3.5,91,0.00,CLR,,0.04,0.0,WeatherDisplay:10.37,2013-03-26 19:45:00,
2013-03-26 20:50:00,28.6,26.3,29.77,NW,315,3.5,3.5,91,0.00,CLR,,0.04,0.0,WeatherDisplay:10.37,2013-03-26 19:50:00,
2013-03-26 20:55:00,28.6,26.3,29.77,NW,315,3.5,3.5,91,0.00,CLR,,0.04,0.0,WeatherDisplay:10.37,2013-03-26 19:55:00,
2013-03-26 21:00:00,28.6,26.3,29.77,NW,315,3.5,3.5,91,0.00,CLR,,0.04,0.0,WeatherDisplay:10.37,2013-03-26 20:00:00,
2013-03-26 21:05:00,28.6,26.3,29.77,NW,315,3.5,3.5,91,0.00,CLR,,0.04,0.0,WeatherDisplay:10.37,2013-03-26 20:05:00,
2013-03-26 21:10:00,28.6,26.3,29.77,NW,315,3.5,3.5,91,0.00,CLR,,0.04,0.0,WeatherDisplay:10.37,2013-03-26 20:10:00,
2013-03-26 21:15:00,28.6,26.3,29.77,NW,315,3.5,3.5,91,0.00,CLR,,0.04,0.0,WeatherDisplay:10.37,2013-03-26 20:15:00,
2013-03-26 21:20:00,28.6,26.3,29.77,NW,315,3.5,3.5,91,0.00,CLR,,0.04,0.0,WeatherDisplay:10.37,2013-03-26 20:20:00,
2013-03-26 21:25:00,28.6,26.3,29.77,NW,315,3.5,3.5,91,0.00,CLR,,0.04,0.0,WeatherDisplay:10.37,2013-03-26 20:25:00,
2013-03-26 21:30:00,28.6,26.3,29.77,NW,315,3.5,3.5,91,0.00,CLR,,0.04,0.0,WeatherDisplay:10.37,2013-03-26 20:30:00,
2013-03-26 21:35:00,28.6,26.6,29.77,NW,315,3.5,3.5,92,0.00,CLR,,0.04,0.0,WeatherDisplay:10.37,2013-03-26 20:35:00,
2013-03-26 21:40:00,28.6,26.6,29.77,NNE,22,3.6,3.6,92,0.00,CLR,,0.04,0.0,WeatherDisplay:10.37,2013-03-26 20:40:00,
2013-03-26 21:45:00,28.6,26.6,29.77,NNE,22,3.6,3.6,92,0.00,CLR,,0.04,0.0,WeatherDisplay:10.37,2013-03-26 20:45:00,
2013-03-26 21:50:00,28.6,26.6,29.77,NNE,22,3.6,3.6,92,0.00,CLR,,0.04,0.0,WeatherDisplay:10.37,2013-03-26 20:50:00,
2013-03-26 21:55:00,28.6,26.3,29.77,NNE,22,3.6,3.6,91,0.00,CLR,,0.04,0.0,WeatherDisplay:10.37,2013-03-26 20:55:00,
2013-03-26 22:00:00,28.4,26.4,29.77,NNE,22,3.6,3.6,92,0.00,CLR,,0.04,0.0,WeatherDisplay:10.37,2013-03-26 21:00:00,
2013-03-26 22:05:00,28.4,26.4,29.77,NNE,22,3.6,3.6,92,0.00,CLR,,0.04,0.0,WeatherDisplay:10.37,2013-03-26 21:05:00,
2013-03-26 22:10:00,28.4,26.4,29.77,NNE,22,3.6,3.6,92,0.00,CLR,,0.04,0.0,WeatherDisplay:10.37,2013-03-26 21:10:00,
2013-03-26 22:15:00,28.2,26.5,29.77,NNE,22,3.6,3.6,93,0.00,CLR,,0.04,0.0,WeatherDisplay:10.37,2013-03-26 21:15:00,
2013-03-26 22:20:00,28.2,26.2,29.77,NNE,22,3.6,3.6,92,0.00,CLR,,0.04,0.0,WeatherDisplay:10.37,2013-03-26 21:20:00,
2013-03-26 22:25:00,28.2,26.2,29.77,NNE,22,3.6,3.6,92,0.00,CLR,,0.04,0.0,WeatherDisplay:10.37,2013-03-26 21:25:00,
2013-03-26 22:30:00,28.2,26.2,29.77,NNE,22,3.6,3.6,92,0.00,CLR,,0.04,0.0,WeatherDisplay:10.37,2013-03-26 21:30:00,
2013-03-26 22:35:00,28.2,26.2,29.77,NNE,22,3.6,3.6,92,0.00,CLR,,0.04,0.0,WeatherDisplay:10.37,2013-03-26 21:35:00,
2013-03-26 22:40:00,28.0,26.0,29.80,NNE,22,3.6,3.6,92,0.00,CLR,,0.04,0.0,WeatherDisplay:10.37,2013-03-26 21:40:00,
2013-03-26 22:45:00,28.0,26.0,29.80,NE,45,3.8,3.8,92,0.00,CLR,,0.04,0.0,WeatherDisplay:10.37,2013-03-26 21:45:00,
2013-03-26 22:50:00,28.0,26.0,29.80,NE,45,3.8,3.8,92,0.00,CLR,,0.04,0.0,WeatherDisplay:10.37,2013-03-26 21:50:00,
2013-03-26 22:55:00,28.0,25.8,29.77,NE,45,3.8,3.8,91,0.00,CLR,,0.04,0.0,WeatherDisplay:10.37,2013-03-26 21:55:00,
2013-03-26 23:00:00,28.0,26.0,29.77,NE,45,3.8,3.8,92,0.00,CLR,,0.04,0.0,WeatherDisplay:10.37,2013-03-26 22:00:00,
2013-03-26 23:05:00,27.9,25.8,29.77,NE,45,3.8,3.8,92,0.00,CLR,,0.04,0.0,WeatherDisplay:10.37,2013-03-26 22:05:00,
2013-03-26 23:10:00,27.9,25.8,29.77,NE,45,3.8,3.8,92,0.00,CLR,,0.04,0.0,WeatherDisplay:10.37,2013-03-26 22:10:00,
2013-03-26 23:15:00,27.9,25.8,29.77,NE,45,3.8,3.8,92,0.00,CLR,,0.04,0.0,WeatherDisplay:10.37,2013-03-26 22:15:00,
2013-03-26 23:20:00,27.9,26.1,29.77,NE,45,3.8,3.8,93,0.00,CLR,,0.04,0.0,WeatherDisplay:10.37,2013-03-26 22:20:00,
2013-03-26 23:25:00,27.9,26.1,29.77,NE,45,3.8,3.8,93,0.00,CLR,,0.04,0.0,WeatherDisplay:10.37,2013-03-26 22:25:00,
2013-03-26 23:30:00,27.9,26.1,29.77,NE,45,3.8,3.8,93,0.00,CLR,,0.04,0.0,WeatherDisplay:10.37,2013-03-26 22:30:00,
2013-03-26 23:35:00,27.9,26.1,29.77,NE,45,3.8,3.8,93,0.00,CLR,,0.04,0.0,WeatherDisplay:10.37,2013-03-26 22:35:00,
2013-03-26 23:40:00,27.9,25.8,29.80,NE,45,3.8,3.8,92,0.00,CLR,,0.04,0.0,WeatherDisplay:10.37,2013-03-26 22:40:00,
2013-03-26 23:45:00,27.9,25.8,29.80,NE,45,3.8,3.8,92,0.00,CLR,,0.04,0.0,WeatherDisplay:10.37,2013-03-26 22:45:00,
2013-03-26 23:50:00,27.7,25.7,29.80,NE,45,3.8,3.8,92,0.00,CLR,,0.04,0.0,WeatherDisplay:10.37,2013-03-26 22:50:00,
2013-03-26 23:55:00,27.7,25.7,29.80,NE,45,3.8,3.8,92,0.00,CLR,,0.04,0.0,WeatherDisplay:10.37,2013-03-26 22:55:00,